createdAt,value
2018-07-04T00:03:52.708Z,3.80
2018-07-04T00:09:04.288Z,3.60
2018-07-04T00:14:15.662Z,3.03
2018-07-04T00:19:27.149Z,3.30
2018-07-04T00:24:39.038Z,3.93
2018-07-04T00:29:50.547Z,3.03
2018-07-04T00:35:02.056Z,2.87
2018-07-04T00:40:14.009Z,2.43
2018-07-04T00:45:25.667Z,2.43
2018-07-04T00:50:37.202Z,2.60
2018-07-04T00:55:48.648Z,2.67
2018-07-04T01:00:54.150Z,2.60
2018-07-04T01:06:05.611Z,2.30
2018-07-04T01:11:17.024Z,2.50
2018-07-04T01:16:22.400Z,2.70
2018-07-04T01:21:33.822Z,2.87
2018-07-04T01:26:45.280Z,2.40
2018-07-04T01:31:50.660Z,2.57
2018-07-04T01:37:02.215Z,2.13
2018-07-04T01:42:13.977Z,2.13
2018-07-04T01:47:25.467Z,2.07
2018-07-04T01:52:36.880Z,2.17
2018-07-04T01:57:48.316Z,1.70
2018-07-04T02:02:59.644Z,1.90
2018-07-04T02:08:10.983Z,2.00
2018-07-04T02:13:22.438Z,2.03
2018-07-04T02:18:34.036Z,1.90
2018-07-04T02:23:45.431Z,1.77
2018-07-04T02:28:56.848Z,2.10
2018-07-04T02:34:08.268Z,1.90
2018-07-04T02:39:19.657Z,1.83
2018-07-04T02:44:31.047Z,1.97
2018-07-04T02:49:42.542Z,2.13
2018-07-04T02:54:54.022Z,2.20
2018-07-04T03:00:05.554Z,2.13
2018-07-04T03:05:17.353Z,1.90
2018-07-04T03:10:28.909Z,2.10
2018-07-04T03:15:34.342Z,2.00
2018-07-04T03:20:45.887Z,2.13
2018-07-04T03:25:51.241Z,1.97
2018-07-04T03:31:03.011Z,2.07
2018-07-04T03:36:14.565Z,2.30
2018-07-04T03:41:26.050Z,2.10
2018-07-04T03:46:37.726Z,2.30
2018-07-04T03:51:49.306Z,2.10
2018-07-04T03:57:00.670Z,2.43
2018-07-04T04:02:12.300Z,2.50
2018-07-04T04:07:24.153Z,1.70
2018-07-04T04:12:35.946Z,1.90
2018-07-04T04:17:47.458Z,1.93
2018-07-04T04:22:58.909Z,2.10
2018-07-04T04:28:10.361Z,2.07
2018-07-04T04:33:21.916Z,2.00
2018-07-04T04:38:33.303Z,2.13
2018-07-04T04:43:44.795Z,2.10
2018-07-04T04:48:56.348Z,2.37
2018-07-04T04:54:07.766Z,2.20
2018-07-04T04:59:19.220Z,2.07
2018-07-04T05:04:30.610Z,2.00
2018-07-04T05:09:42.010Z,2.20
2018-07-04T05:14:53.730Z,2.00
2018-07-04T05:20:05.092Z,2.23
2018-07-04T05:25:16.571Z,2.20
2018-07-04T05:30:28.140Z,2.17
2018-07-04T05:35:39.566Z,2.20
2018-07-04T05:40:45.149Z,1.87
2018-07-04T05:45:56.632Z,1.90
2018-07-04T05:51:08.696Z,1.60
2018-07-04T05:56:14.461Z,2.00
2018-07-04T06:01:26.530Z,1.93
2018-07-04T06:06:38.196Z,2.00
2018-07-04T06:11:43.765Z,1.80
2018-07-04T06:16:55.623Z,1.97
2018-07-04T06:22:07.597Z,1.90
2018-07-04T06:27:19.423Z,1.93
2018-07-04T06:32:31.047Z,1.90
2018-07-04T06:37:35.612Z,1.80
2018-07-04T06:42:29.194Z,1.80
2018-07-04T06:47:22.332Z,1.80
2018-07-04T06:52:15.890Z,2.27
2018-07-04T06:57:09.383Z,2.10
2018-07-04T07:02:21.564Z,2.03
2018-07-04T07:07:33.758Z,2.00
2018-07-04T07:12:45.798Z,1.90
2018-07-04T07:17:57.523Z,2.70
2018-07-04T07:23:09.225Z,1.97
2018-07-04T07:28:14.962Z,2.13
2018-07-04T07:33:26.620Z,1.83
2018-07-04T07:38:38.577Z,2.40
2018-07-04T07:43:50.282Z,2.13
2018-07-04T07:49:02.186Z,2.10
2018-07-04T07:54:13.905Z,1.80
2018-07-04T07:59:25.657Z,2.20
2018-07-04T08:04:37.524Z,1.67
2018-07-04T08:09:49.188Z,1.90
2018-07-04T08:15:00.995Z,1.90
2018-07-04T08:20:12.594Z,2.03
2018-07-04T08:25:24.424Z,1.97
2018-07-04T08:30:30.472Z,1.77
2018-07-04T08:35:42.285Z,2.07
2018-07-04T08:40:54.108Z,2.00
2018-07-04T08:46:05.862Z,2.20
2018-07-04T08:51:17.684Z,2.10
2018-07-04T08:56:29.565Z,2.33
2018-07-04T09:01:35.513Z,2.37
2018-07-04T09:06:47.343Z,2.40
2018-07-04T09:11:59.284Z,2.93
2018-07-04T09:17:11.177Z,2.50
2018-07-04T09:22:22.853Z,1.80
2018-07-04T09:27:34.512Z,2.30
2018-07-04T09:32:46.209Z,2.53
2018-07-04T09:37:58.179Z,2.40
2018-07-04T09:43:10.078Z,2.53
2018-07-04T09:48:21.659Z,3.00
2018-07-04T09:53:33.106Z,3.03
2018-07-04T09:58:44.763Z,3.03
2018-07-04T10:03:56.684Z,3.43
2018-07-04T10:09:08.318Z,3.00
2018-07-04T10:14:20.086Z,2.80
2018-07-04T10:19:25.708Z,2.47
2018-07-04T10:24:37.819Z,3.00
2018-07-04T10:29:49.641Z,2.70
2018-07-04T10:35:01.266Z,3.33
2018-07-04T10:40:12.926Z,3.60
2018-07-04T10:45:24.737Z,2.77
2018-07-04T10:50:30.602Z,3.03
2018-07-04T10:55:42.310Z,2.80
2018-07-04T11:00:54.203Z,3.03
2018-07-04T11:06:06.192Z,2.73
2018-07-04T11:11:17.963Z,3.10
2018-07-04T11:16:29.736Z,3.40
2018-07-04T11:21:35.392Z,3.17
2018-07-04T11:26:47.242Z,3.53
2018-07-04T11:31:58.927Z,3.07
2018-07-04T11:37:04.717Z,3.33
2018-07-04T11:42:16.366Z,3.53
2018-07-04T11:47:09.496Z,3.30
2018-07-04T11:52:02.677Z,3.60
2018-07-04T11:56:55.877Z,3.33
2018-07-04T12:01:49.654Z,3.30
2018-07-04T12:07:01.740Z,3.03
2018-07-04T12:11:55.032Z,3.60
2018-07-04T12:16:48.181Z,3.13
2018-07-04T12:21:41.564Z,2.70
2018-07-04T12:26:34.982Z,3.10
2018-07-04T12:31:28.534Z,3.60
2018-07-04T12:36:21.657Z,3.90
2018-07-04T12:41:14.775Z,3.80
2018-07-04T12:46:08.239Z,3.87
2018-07-04T12:51:01.584Z,4.10
2018-07-04T12:56:13.872Z,3.90
2018-07-04T13:01:25.685Z,3.53
2018-07-04T13:06:37.452Z,3.30
2018-07-04T13:11:49.234Z,3.30
2018-07-04T13:17:01.119Z,3.30
2018-07-04T13:22:12.810Z,3.80
2018-07-04T13:27:25.142Z,3.30
2018-07-04T13:32:36.575Z,3.50
2018-07-04T13:37:48.081Z,3.57
2018-07-04T13:42:59.860Z,3.03
2018-07-04T13:48:05.753Z,4.13
2018-07-04T13:53:17.951Z,3.53
2018-07-04T13:58:29.863Z,3.17
2018-07-04T14:03:41.517Z,2.80
2018-07-04T14:08:53.106Z,3.30
2018-07-04T14:14:04.654Z,3.33
2018-07-04T14:19:16.442Z,3.70
2018-07-04T14:24:28.053Z,3.17
2018-07-04T14:29:39.695Z,2.50
2018-07-04T14:34:51.860Z,3.23
2018-07-04T14:40:03.882Z,2.70
2018-07-04T14:45:15.775Z,3.07
2018-07-04T14:50:29.096Z,3.00
2018-07-04T14:55:34.878Z,3.10
2018-07-04T15:00:48.186Z,3.13
2018-07-04T15:06:00.388Z,2.67
2018-07-04T15:11:12.242Z,2.30
2018-07-04T15:16:24.567Z,1.90
2018-07-04T15:21:36.632Z,2.10
2018-07-04T15:26:48.372Z,2.20
2018-07-04T15:32:00.151Z,2.10
2018-07-04T15:37:12.493Z,2.53
2018-07-04T15:42:24.288Z,2.20
2018-07-04T15:47:36.035Z,2.40
2018-07-04T15:52:48.224Z,2.50
2018-07-04T15:58:00.092Z,2.33
2018-07-04T16:03:05.953Z,2.60
2018-07-04T16:08:17.606Z,2.67
2018-07-04T16:13:29.394Z,2.40
2018-07-04T16:18:41.197Z,2.43
2018-07-04T16:23:52.815Z,2.73
2018-07-04T16:29:04.687Z,3.10
2018-07-04T16:34:16.733Z,3.23
2018-07-04T16:39:28.593Z,2.70
2018-07-04T16:44:40.578Z,2.90
2018-07-04T16:49:52.291Z,3.63
2018-07-04T16:55:04.027Z,3.33
2018-07-04T17:00:16.542Z,3.40
2018-07-04T17:05:28.358Z,3.40
2018-07-04T17:10:40.576Z,3.47
2018-07-04T17:15:52.148Z,2.90
2018-07-04T17:20:57.645Z,3.13
2018-07-04T17:26:09.375Z,2.30
2018-07-04T17:31:21.184Z,2.10
2018-07-04T17:36:32.863Z,3.00
2018-07-04T17:41:44.606Z,2.53
2018-07-04T17:46:56.299Z,2.80
2018-07-04T17:52:08.049Z,4.33
2018-07-04T17:57:19.512Z,2.70
2018-07-04T18:02:31.222Z,3.83
2018-07-04T18:07:43.308Z,3.37
2018-07-04T18:12:55.880Z,3.33
2018-07-04T18:18:07.868Z,3.40
2018-07-04T18:23:20.309Z,3.23
2018-07-04T18:28:32.362Z,3.50
2018-07-04T18:33:44.064Z,3.80
2018-07-04T18:38:56.044Z,3.50
2018-07-04T18:44:07.823Z,4.70
2018-07-04T18:49:19.566Z,3.77
2018-07-04T18:54:31.207Z,4.00
2018-07-04T18:59:43.019Z,3.73
2018-07-04T19:04:48.649Z,3.67
2018-07-04T19:10:00.206Z,4.00
2018-07-04T19:20:38.246Z,3.93
2018-07-04T19:25:53.261Z,3.73
2018-07-04T19:31:06.192Z,3.97
2018-07-04T19:36:21.578Z,3.93
2018-07-04T19:41:37.227Z,4.63
2018-07-04T19:46:45.012Z,3.97
2018-07-04T19:52:07.482Z,3.90
2018-07-04T19:57:29.490Z,3.97
2018-07-04T20:02:55.867Z,4.60
2018-07-04T20:08:10.847Z,4.50
2018-07-04T20:13:39.162Z,4.37
2018-07-04T20:19:07.381Z,4.30
2018-07-04T20:24:22.936Z,4.63
2018-07-04T20:29:38.706Z,4.77
2018-07-04T20:35:01.281Z,4.70
2018-07-04T20:40:14.971Z,4.97
2018-07-04T20:45:26.776Z,4.50
2018-07-04T20:50:38.538Z,4.40
2018-07-04T20:55:50.351Z,4.50
2018-07-04T21:01:02.172Z,5.07
2018-07-04T21:06:13.793Z,5.07
2018-07-04T21:11:25.372Z,5.40
2018-07-04T21:16:37.019Z,4.93
2018-07-04T21:21:42.588Z,5.00
2018-07-04T21:26:54.290Z,5.57
2018-07-04T21:32:05.663Z,4.90
2018-07-04T21:37:17.053Z,5.47
2018-07-04T21:42:28.475Z,4.30
2018-07-04T21:47:40.054Z,5.00
2018-07-04T21:52:53.940Z,4.27
2018-07-04T21:58:05.882Z,4.47
2018-07-04T22:03:17.707Z,4.43
2018-07-04T22:08:29.176Z,4.80
2018-07-04T22:13:40.742Z,4.63
2018-07-04T22:18:52.283Z,5.03
2018-07-04T22:24:03.877Z,5.07
2018-07-04T22:29:15.492Z,5.20
2018-07-04T22:34:27.096Z,5.57
2018-07-04T22:39:39.216Z,5.27
2018-07-04T22:44:50.908Z,5.50
2018-07-04T22:50:02.364Z,6.30
2018-07-04T22:55:13.994Z,5.97
2018-07-04T23:00:25.624Z,6.50
2018-07-04T23:05:37.280Z,5.83
2018-07-04T23:10:48.901Z,5.67
2018-07-04T23:15:53.932Z,5.13
2018-07-04T23:21:05.496Z,5.73
2018-07-04T23:26:17.152Z,5.83
2018-07-04T23:31:28.731Z,6.07
2018-07-04T23:36:40.116Z,5.83
2018-07-04T23:41:52.919Z,5.67
2018-07-04T23:47:04.690Z,5.77
2018-07-04T23:52:16.142Z,5.70
2018-07-04T23:57:27.543Z,5.37
